VOI055 MMUN-MMGL
Flight info
| Callsign | VOI055 |
|---|---|
| Flight time | N/A |
| Altitude | 34000 |
| Route | UDGUV2A UDGUV UT78 DURPI DCT NUBIT DCT RIBET UT101 ENAGA DCT OVAGO UT123 IGSON IGSON1B |
| Aircraft | A321/M-SDE3FGHIRWY/LB1 |
Departure
| Time | 2026-05-03 23:24 |
|---|---|
| Airport | Cancún International Airport (MMUN) |
Arrival
| Time | N/A |
|---|---|
| Airport | Guadalajara International Airport (MMGL) |
| Time | Latitude | Longitude | Altitude | Speed | Heading |
|---|---|---|---|---|---|
| 2026-05-03 22:52 | 21.03896 | -86.87639 | 21 ft | 0 kts | 336° |
| 2026-05-03 23:12 | 21.03893 | -86.87638 | 40 ft | 4 kts | 335° |
| 2026-05-03 23:12 | 21.03871 | -86.87631 | 25 ft | 4 kts | 350° |
| 2026-05-03 23:13 | 21.03845 | -86.87625 | 24 ft | 4 kts | 341° |
| 2026-05-03 23:13 | 21.03823 | -86.87612 | 25 ft | 4 kts | 300° |
| 2026-05-03 23:13 | 21.03820 | -86.87598 | 24 ft | 0 kts | 256° |
| 2026-05-03 23:16 | 21.03819 | -86.87600 | 24 ft | 1 kts | 256° |
| 2026-05-03 23:17 | 21.03817 | -86.87629 | 23 ft | 7 kts | 273° |
| 2026-05-03 23:17 | 21.03842 | -86.87687 | 22 ft | 9 kts | 303° |
| 2026-05-03 23:17 | 21.03881 | -86.87749 | 22 ft | 10 kts | 304° |
| 2026-05-03 23:17 | 21.03926 | -86.87819 | 22 ft | 12 kts | 304° |
| 2026-05-03 23:18 | 21.03978 | -86.87900 | 22 ft | 14 kts | 304° |
| 2026-05-03 23:18 | 21.04033 | -86.87986 | 22 ft | 14 kts | 304° |
| 2026-05-03 23:18 | 21.04089 | -86.88077 | 22 ft | 15 kts | 303° |
| 2026-05-03 23:18 | 21.04148 | -86.88174 | 23 ft | 16 kts | 304° |
| 2026-05-03 23:19 | 21.04209 | -86.88271 | 23 ft | 16 kts | 304° |
| 2026-05-03 23:19 | 21.04273 | -86.88369 | 24 ft | 16 kts | 305° |
| 2026-05-03 23:19 | 21.04338 | -86.88470 | 24 ft | 17 kts | 304° |
| 2026-05-03 23:19 | 21.04404 | -86.88575 | 26 ft | 17 kts | 299° |
| 2026-05-03 23:20 | 21.04467 | -86.88684 | 25 ft | 17 kts | 305° |
| 2026-05-03 23:20 | 21.04538 | -86.88792 | 25 ft | 18 kts | 304° |
| 2026-05-03 23:20 | 21.04606 | -86.88906 | 25 ft | 17 kts | 302° |
| 2026-05-03 23:20 | 21.04633 | -86.88994 | 25 ft | 12 kts | 253° |
| 2026-05-03 23:21 | 21.04615 | -86.89017 | 24 ft | 0 kts | 226° |
| 2026-05-03 23:21 | 21.04614 | -86.89019 | 24 ft | 1 kts | 226° |
| 2026-05-03 23:21 | 21.04602 | -86.89030 | 25 ft | 3 kts | 220° |
| 2026-05-03 23:22 | 21.04535 | -86.89071 | 23 ft | 7 kts | 174° |
| 2026-05-03 23:22 | 21.04512 | -86.89059 | 23 ft | 0 kts | 134° |
| 2026-05-03 23:22 | 21.04503 | -86.89048 | 23 ft | 7 kts | 129° |
| 2026-05-03 23:23 | 21.04481 | -86.89013 | 24 ft | 0 kts | 123° |
| 2026-05-03 23:23 | 21.04357 | -86.88816 | 24 ft | 73 kts | 124° |
| 2026-05-03 23:23 | 21.03929 | -86.88138 | 22 ft | 144 kts | 125° |
| 2026-05-03 23:23 | 21.03273 | -86.87068 | 25 ft | 198 kts | 123° |
| 2026-05-03 23:24 | 21.02497 | -86.85844 | 717 ft | 194 kts | 126° |
| 2026-05-03 23:24 | 21.01636 | -86.84615 | 1314 ft | 221 kts | 138° |
| 2026-05-03 23:24 | 21.00179 | -86.83929 | 1968 ft | 246 kts | 177° |
| 2026-05-03 23:24 | 20.98452 | -86.84331 | 2550 ft | 264 kts | 207° |
| 2026-05-03 23:25 | 20.96871 | -86.85437 | 2910 ft | 271 kts | 218° |
| 2026-05-03 23:25 | 20.95410 | -86.86718 | 2975 ft | 271 kts | 220° |
| 2026-05-03 23:25 | 20.94094 | -86.88143 | 2977 ft | 270 kts | 240° |
| 2026-05-03 23:25 | 20.93475 | -86.90019 | 2987 ft | 270 kts | 263° |
| 2026-05-03 23:26 | 20.93282 | -86.92023 | 2990 ft | 271 kts | 263° |
| 2026-05-03 23:26 | 20.93024 | -86.94023 | 2991 ft | 271 kts | 261° |
| 2026-05-03 23:26 | 20.92727 | -86.96021 | 3256 ft | 272 kts | 261° |
| 2026-05-03 23:26 | 20.92420 | -86.98011 | 4012 ft | 271 kts | 261° |
| 2026-05-03 23:27 | 20.92113 | -87.00004 | 4754 ft | 272 kts | 261° |
| 2026-05-03 23:27 | 20.91809 | -87.02006 | 5414 ft | 273 kts | 262° |
| 2026-05-03 23:27 | 20.91510 | -87.04019 | 6025 ft | 276 kts | 262° |
| 2026-05-03 23:27 | 20.91211 | -87.06060 | 6622 ft | 279 kts | 262° |
| 2026-05-03 23:28 | 20.90911 | -87.08114 | 7189 ft | 281 kts | 262° |
| 2026-05-03 23:28 | 20.90610 | -87.10185 | 7771 ft | 283 kts | 262° |
| 2026-05-03 23:28 | 20.90303 | -87.12304 | 8363 ft | 285 kts | 262° |
| 2026-05-03 23:28 | 20.90002 | -87.14381 | 8938 ft | 287 kts | 262° |
| 2026-05-03 23:29 | 20.89695 | -87.16496 | 9518 ft | 289 kts | 262° |
| 2026-05-03 23:29 | 20.89388 | -87.18627 | 10070 ft | 291 kts | 262° |
| 2026-05-03 23:29 | 20.89071 | -87.20831 | 10243 ft | 309 kts | 262° |
| 2026-05-03 23:29 | 20.88734 | -87.23164 | 10424 ft | 324 kts | 262° |
| 2026-05-03 23:30 | 20.88387 | -87.25556 | 10852 ft | 328 kts | 262° |
| 2026-05-03 23:30 | 20.88029 | -87.28014 | 11369 ft | 331 kts | 262° |
| 2026-05-03 23:30 | 20.87669 | -87.30444 | 11884 ft | 333 kts | 262° |
| 2026-05-03 23:30 | 20.87306 | -87.32895 | 12397 ft | 334 kts | 262° |
| 2026-05-03 23:31 | 20.86943 | -87.35363 | 12888 ft | 337 kts | 262° |
| 2026-05-03 23:31 | 20.86580 | -87.37848 | 13409 ft | 340 kts | 262° |
| 2026-05-03 23:31 | 20.86212 | -87.40354 | 13927 ft | 342 kts | 262° |
| 2026-05-03 23:31 | 20.85840 | -87.42874 | 14379 ft | 344 kts | 262° |
| 2026-05-03 23:32 | 20.85466 | -87.45404 | 14823 ft | 345 kts | 262° |
| 2026-05-03 23:32 | 20.85092 | -87.47941 | 15252 ft | 346 kts | 262° |
| 2026-05-03 23:32 | 20.84718 | -87.50483 | 15690 ft | 347 kts | 262° |
| 2026-05-03 23:32 | 20.84340 | -87.53039 | 16126 ft | 349 kts | 262° |
| 2026-05-03 23:33 | 20.83961 | -87.55603 | 16557 ft | 350 kts | 262° |
| 2026-05-03 23:33 | 20.83578 | -87.58179 | 16981 ft | 351 kts | 262° |
| 2026-05-03 23:33 | 20.83194 | -87.60759 | 17415 ft | 353 kts | 262° |
| 2026-05-03 23:33 | 20.82809 | -87.63357 | 17841 ft | 354 kts | 262° |
| 2026-05-03 23:34 | 20.82426 | -87.65962 | 18261 ft | 356 kts | 262° |
| 2026-05-03 23:34 | 20.82042 | -87.68575 | 18627 ft | 357 kts | 262° |
| 2026-05-03 23:34 | 20.81651 | -87.71201 | 18973 ft | 358 kts | 262° |
| 2026-05-03 23:34 | 20.81257 | -87.73834 | 19345 ft | 360 kts | 262° |
| 2026-05-03 23:35 | 20.80863 | -87.76481 | 19710 ft | 361 kts | 264° |
| 2026-05-03 23:35 | 20.80738 | -87.79164 | 20018 ft | 363 kts | 272° |
| 2026-05-03 23:35 | 20.80802 | -87.81879 | 20331 ft | 366 kts | 272° |
| 2026-05-03 23:35 | 20.80869 | -87.84608 | 20684 ft | 368 kts | 272° |
| 2026-05-03 23:36 | 20.80935 | -87.87350 | 21045 ft | 370 kts | 272° |
| 2026-05-03 23:36 | 20.81000 | -87.90102 | 21402 ft | 371 kts | 272° |
| 2026-05-03 23:36 | 20.81060 | -87.92864 | 21762 ft | 373 kts | 272° |
| 2026-05-03 23:36 | 20.81118 | -87.95644 | 22119 ft | 374 kts | 272° |
| 2026-05-03 23:37 | 20.81175 | -87.98433 | 22477 ft | 376 kts | 272° |
| 2026-05-03 23:37 | 20.81233 | -88.01232 | 22830 ft | 378 kts | 273° |
| 2026-05-03 23:37 | 20.81293 | -88.04042 | 23177 ft | 379 kts | 273° |
| 2026-05-03 23:37 | 20.81353 | -88.06866 | 23527 ft | 381 kts | 273° |
| 2026-05-03 23:38 | 20.81412 | -88.09700 | 23805 ft | 383 kts | 273° |
| 2026-05-03 23:38 | 20.81472 | -88.12554 | 24061 ft | 385 kts | 273° |
| 2026-05-03 23:38 | 20.81533 | -88.15417 | 24322 ft | 386 kts | 273° |
| 2026-05-03 23:38 | 20.81593 | -88.18288 | 24582 ft | 388 kts | 272° |
| 2026-05-03 23:39 | 20.81630 | -88.20202 | 24755 ft | 389 kts | 272° |
| 2026-05-03 23:39 | 20.81683 | -88.23088 | 25010 ft | 390 kts | 272° |
| 2026-05-03 23:39 | 20.81739 | -88.25994 | 25267 ft | 391 kts | 272° |
| 2026-05-03 23:39 | 20.81796 | -88.28902 | 25520 ft | 392 kts | 272° |
| 2026-05-03 23:40 | 20.81852 | -88.31823 | 25774 ft | 394 kts | 272° |
| 2026-05-03 23:40 | 20.81907 | -88.34755 | 26017 ft | 395 kts | 272° |
| 2026-05-03 23:40 | 20.81965 | -88.37691 | 26264 ft | 396 kts | 272° |
| 2026-05-03 23:40 | 20.82025 | -88.40643 | 26507 ft | 397 kts | 272° |
| 2026-05-03 23:41 | 20.82081 | -88.43597 | 26744 ft | 399 kts | 272° |
| 2026-05-03 23:41 | 20.82135 | -88.46568 | 26983 ft | 400 kts | 271° |
| 2026-05-03 23:41 | 20.82188 | -88.49545 | 27206 ft | 401 kts | 271° |
| 2026-05-03 23:41 | 20.82241 | -88.52532 | 27442 ft | 403 kts | 271° |
| 2026-05-03 23:42 | 20.82293 | -88.55527 | 27678 ft | 404 kts | 271° |
| 2026-05-03 23:42 | 20.82343 | -88.58530 | 27902 ft | 405 kts | 271° |
| 2026-05-03 23:42 | 20.82395 | -88.61548 | 28143 ft | 406 kts | 271° |
| 2026-05-03 23:42 | 20.82448 | -88.64609 | 28371 ft | 408 kts | 271° |
| 2026-05-03 23:43 | 20.82499 | -88.67600 | 28594 ft | 409 kts | 271° |
| 2026-05-03 23:43 | 20.82552 | -88.70641 | 28815 ft | 410 kts | 271° |
| 2026-05-03 23:43 | 20.82605 | -88.73694 | 29034 ft | 411 kts | 271° |
| 2026-05-03 23:43 | 20.82658 | -88.76759 | 29253 ft | 412 kts | 271° |
| 2026-05-03 23:44 | 20.82711 | -88.79821 | 29461 ft | 414 kts | 271° |
| 2026-05-03 23:44 | 20.82761 | -88.82901 | 29660 ft | 415 kts | 270° |
| 2026-05-03 23:44 | 20.82808 | -88.85993 | 29865 ft | 416 kts | 270° |
| 2026-05-03 23:44 | 20.82856 | -88.89089 | 30057 ft | 417 kts | 271° |
| 2026-05-03 23:45 | 20.82906 | -88.92190 | 30235 ft | 418 kts | 271° |
| 2026-05-03 23:45 | 20.82958 | -88.95307 | 30390 ft | 419 kts | 271° |
| 2026-05-03 23:45 | 20.83010 | -88.98423 | 30549 ft | 420 kts | 271° |
| 2026-05-03 23:45 | 20.83059 | -89.01554 | 30711 ft | 421 kts | 271° |
| 2026-05-03 23:46 | 20.83105 | -89.04687 | 30881 ft | 422 kts | 271° |
| 2026-05-03 23:46 | 20.83151 | -89.07827 | 31045 ft | 423 kts | 271° |
| 2026-05-03 23:46 | 20.83198 | -89.10971 | 31218 ft | 424 kts | 271° |
| 2026-05-03 23:46 | 20.83240 | -89.13795 | 31385 ft | 424 kts | 271° |
| 2026-05-03 23:47 | 20.83285 | -89.16955 | 31568 ft | 425 kts | 271° |
| 2026-05-03 23:47 | 20.83328 | -89.20108 | 31788 ft | 425 kts | 271° |
| 2026-05-03 23:47 | 20.83362 | -89.22817 | 32017 ft | 423 kts | 270° |
| 2026-05-03 23:47 | 20.83355 | -89.26050 | 32275 ft | 422 kts | 269° |
| 2026-05-03 23:48 | 20.83299 | -89.29188 | 32506 ft | 422 kts | 269° |
| 2026-05-03 23:48 | 20.83224 | -89.32056 | 32713 ft | 421 kts | 269° |
| 2026-05-03 23:48 | 20.83136 | -89.35186 | 32933 ft | 421 kts | 269° |
| 2026-05-03 23:48 | 20.83057 | -89.38067 | 33143 ft | 420 kts | 269° |
| 2026-05-03 23:49 | 20.82978 | -89.41189 | 33370 ft | 420 kts | 269° |
| 2026-05-03 23:49 | 20.82907 | -89.44304 | 33587 ft | 419 kts | 269° |
| 2026-05-03 23:49 | 20.82842 | -89.47417 | 33811 ft | 419 kts | 269° |
| 2026-05-03 23:49 | 20.82780 | -89.50527 | 33956 ft | 418 kts | 269° |
| 2026-05-03 23:50 | 20.82717 | -89.53588 | 33984 ft | 406 kts | 269° |
| 2026-05-03 23:50 | 20.82658 | -89.56360 | 33988 ft | 400 kts | 269° |
| 2026-05-03 23:50 | 20.82555 | -89.61033 | 33987 ft | 397 kts | 269° |